sensor_id;sensor_type;location;lat;lon;timestamp;pressure;altitude;pressure_sealevel;temperature;humidity
55916;BME280;41826;53.246;-6.670;2022-10-16T00:01:08;99029.09;;;7.01;100.00
55916;BME280;41826;53.246;-6.670;2022-10-16T00:03:34;99046.34;;;6.85;100.00
55916;BME280;41826;53.246;-6.670;2022-10-16T00:06:00;99049.47;;;6.89;100.00
55916;BME280;41826;53.246;-6.670;2022-10-16T00:08:26;99050.94;;;6.91;100.00
55916;BME280;41826;53.246;-6.670;2022-10-16T00:10:52;99060.72;;;6.89;100.00
55916;BME280;41826;53.246;-6.670;2022-10-16T00:13:17;99057.78;;;6.92;100.00
55916;BME280;41826;53.246;-6.670;2022-10-16T00:15:44;99068.34;;;6.83;100.00
55916;BME280;41826;53.246;-6.670;2022-10-16T00:18:11;99071.13;;;6.81;100.00
55916;BME280;41826;53.246;-6.670;2022-10-16T00:20:37;99069.66;;;6.79;100.00
55916;BME280;41826;53.246;-6.670;2022-10-16T00:23:03;99080.59;;;6.90;100.00
55916;BME280;41826;53.246;-6.670;2022-10-16T00:25:30;99079.25;;;6.70;100.00
55916;BME280;41826;53.246;-6.670;2022-10-16T00:27:58;99084.56;;;6.60;100.00
55916;BME280;41826;53.246;-6.670;2022-10-16T00:30:23;99101.34;;;6.58;100.00
55916;BME280;41826;53.246;-6.670;2022-10-16T00:32:49;99104.31;;;6.63;100.00
55916;BME280;41826;53.246;-6.670;2022-10-16T00:35:14;99108.38;;;6.65;100.00
55916;BME280;41826;53.246;-6.670;2022-10-16T00:37:40;99101.34;;;6.58;100.00
55916;BME280;41826;53.246;-6.670;2022-10-16T00:40:05;99110.66;;;6.60;100.00
55916;BME280;41826;53.246;-6.670;2022-10-16T00:42:31;99103.94;;;6.49;100.00
55916;BME280;41826;53.246;-6.670;2022-10-16T00:44:57;99108.84;;;6.61;100.00
55916;BME280;41826;53.246;-6.670;2022-10-16T00:47:29;99115.25;;;6.66;100.00
55916;BME280;41826;53.246;-6.670;2022-10-16T00:50:12;99122.06;;;6.59;100.00
55916;BME280;41826;53.246;-6.670;2022-10-16T00:52:43;99121.25;;;6.59;100.00
55916;BME280;41826;53.246;-6.670;2022-10-16T00:55:10;99126.28;;;6.60;100.00
55916;BME280;41826;53.246;-6.670;2022-10-16T00:57:36;99131.16;;;6.55;100.00
55916;BME280;41826;53.246;-6.670;2022-10-16T01:00:04;99125.81;;;6.57;100.00
55916;BME280;41826;53.246;-6.670;2022-10-16T01:02:30;99120.75;;;6.63;100.00
55916;BME280;41826;53.246;-6.670;2022-10-16T01:04:55;99122.50;;;6.46;100.00
55916;BME280;41826;53.246;-6.670;2022-10-16T01:13:01;99135.56;;;6.55;100.00
55916;BME280;41826;53.246;-6.670;2022-10-16T01:15:47;99132.63;;;6.58;100.00
55916;BME280;41826;53.246;-6.670;2022-10-16T01:26:13;99158.41;;;6.61;100.00
55916;BME280;41826;53.246;-6.670;2022-10-16T01:28:54;99159.31;;;6.43;100.00
55916;BME280;41826;53.246;-6.670;2022-10-16T01:31:25;99157.06;;;6.48;100.00
55916;BME280;41826;53.246;-6.670;2022-10-16T01:34:14;99165.22;;;6.54;100.00
55916;BME280;41826;53.246;-6.670;2022-10-16T01:36:45;99167.47;;;6.48;100.00
55916;BME280;41826;53.246;-6.670;2022-10-16T01:39:14;99169.41;;;6.46;100.00
55916;BME280;41826;53.246;-6.670;2022-10-16T01:41:48;99170.72;;;6.50;100.00
55916;BME280;41826;53.246;-6.670;2022-10-16T01:44:20;99183.13;;;6.48;100.00
55916;BME280;41826;53.246;-6.670;2022-10-16T01:46:50;99194.47;;;6.39;100.00
55916;BME280;41826;53.246;-6.670;2022-10-16T01:49:17;99192.97;;;6.37;100.00
55916;BME280;41826;53.246;-6.670;2022-10-16T01:51:47;99206.47;;;6.32;100.00
55916;BME280;41826;53.246;-6.670;2022-10-16T01:54:14;99209.13;;;6.40;100.00
55916;BME280;41826;53.246;-6.670;2022-10-16T01:56:41;99208.88;;;6.51;100.00
55916;BME280;41826;53.246;-6.670;2022-10-16T01:59:13;99220.56;;;6.47;100.00
55916;BME280;41826;53.246;-6.670;2022-10-16T02:01:43;99217.28;;;6.45;100.00
55916;BME280;41826;53.246;-6.670;2022-10-16T02:04:26;99222.22;;;6.48;100.00
55916;BME280;41826;53.246;-6.670;2022-10-16T02:06:53;99228.13;;;6.33;100.00
55916;BME280;41826;53.246;-6.670;2022-10-16T02:09:19;99236.44;;;6.28;100.00
55916;BME280;41826;53.246;-6.670;2022-10-16T02:11:45;99228.28;;;6.31;100.00
55916;BME280;41826;53.246;-6.670;2022-10-16T02:14:10;99228.44;;;6.29;100.00
55916;BME280;41826;53.246;-6.670;2022-10-16T02:16:42;99237.97;;;6.39;100.00
55916;BME280;41826;53.246;-6.670;2022-10-16T02:19:08;99242.72;;;6.43;100.00
55916;BME280;41826;53.246;-6.670;2022-10-16T02:21:51;99247.72;;;6.37;100.00
55916;BME280;41826;53.246;-6.670;2022-10-16T02:24:27;99255.13;;;6.23;100.00
55916;BME280;41826;53.246;-6.670;2022-10-16T02:29:31;99262.94;;;6.23;100.00
55916;BME280;41826;53.246;-6.670;2022-10-16T02:32:01;99266.50;;;6.22;100.00
55916;BME280;41826;53.246;-6.670;2022-10-16T02:34:30;99264.47;;;6.34;100.00
55916;BME280;41826;53.246;-6.670;2022-10-16T02:36:58;99269.31;;;6.29;100.00
55916;BME280;41826;53.246;-6.670;2022-10-16T02:39:27;99285.84;;;6.20;100.00
55916;BME280;41826;53.246;-6.670;2022-10-16T02:41:54;99287.25;;;6.32;100.00
55916;BME280;41826;53.246;-6.670;2022-10-16T02:44:19;99285.56;;;6.23;100.00
55916;BME280;41826;53.246;-6.670;2022-10-16T02:46:45;99280.13;;;6.16;100.00
55916;BME280;41826;53.246;-6.670;2022-10-16T02:49:10;99286.06;;;6.26;100.00
55916;BME280;41826;53.246;-6.670;2022-10-16T02:51:35;99288.84;;;6.07;100.00
55916;BME280;41826;53.246;-6.670;2022-10-16T02:54:02;99294.03;;;6.25;100.00
55916;BME280;41826;53.246;-6.670;2022-10-16T02:56:27;99292.25;;;6.07;100.00
55916;BME280;41826;53.246;-6.670;2022-10-16T02:58:53;99302.66;;;6.07;100.00
55916;BME280;41826;53.246;-6.670;2022-10-16T03:01:18;99322.75;;;5.97;100.00
55916;BME280;41826;53.246;-6.670;2022-10-16T03:03:44;99308.41;;;6.11;100.00
55916;BME280;41826;53.246;-6.670;2022-10-16T03:06:09;99315.38;;;5.93;100.00
55916;BME280;41826;53.246;-6.670;2022-10-16T03:08:34;99319.75;;;5.92;100.00
55916;BME280;41826;53.246;-6.670;2022-10-16T03:11:00;99315.25;;;5.94;100.00
55916;BME280;41826;53.246;-6.670;2022-10-16T03:13:25;99311.69;;;5.95;100.00
55916;BME280;41826;53.246;-6.670;2022-10-16T03:15:50;99321.47;;;5.83;100.00
55916;BME280;41826;53.246;-6.670;2022-10-16T03:18:16;99323.63;;;5.88;100.00
55916;BME280;41826;53.246;-6.670;2022-10-16T03:20:42;99340.94;;;5.79;100.00
55916;BME280;41826;53.246;-6.670;2022-10-16T03:23:08;99336.28;;;5.83;100.00
55916;BME280;41826;53.246;-6.670;2022-10-16T03:25:34;99339.19;;;5.80;100.00
55916;BME280;41826;53.246;-6.670;2022-10-16T03:27:59;99346.78;;;5.63;100.00
55916;BME280;41826;53.246;-6.670;2022-10-16T03:30:25;99348.38;;;5.74;100.00
55916;BME280;41826;53.246;-6.670;2022-10-16T03:32:50;99357.84;;;5.75;100.00
55916;BME280;41826;53.246;-6.670;2022-10-16T03:35:20;99362.38;;;5.73;100.00
55916;BME280;41826;53.246;-6.670;2022-10-16T03:37:45;99375.00;;;5.68;100.00
55916;BME280;41826;53.246;-6.670;2022-10-16T03:40:11;99376.59;;;5.79;100.00
55916;BME280;41826;53.246;-6.670;2022-10-16T03:42:36;99378.03;;;5.91;100.00
55916;BME280;41826;53.246;-6.670;2022-10-16T03:45:02;99376.19;;;5.74;100.00
55916;BME280;41826;53.246;-6.670;2022-10-16T03:47:28;99375.69;;;5.70;100.00
55916;BME280;41826;53.246;-6.670;2022-10-16T03:49:53;99375.94;;;5.67;100.00
55916;BME280;41826;53.246;-6.670;2022-10-16T03:52:18;99381.16;;;5.67;100.00
55916;BME280;41826;53.246;-6.670;2022-10-16T03:54:44;99396.34;;;5.72;100.00
55916;BME280;41826;53.246;-6.670;2022-10-16T03:57:09;99394.09;;;5.86;100.00
55916;BME280;41826;53.246;-6.670;2022-10-16T03:59:34;99412.88;;;5.90;100.00
55916;BME280;41826;53.246;-6.670;2022-10-16T04:02:00;99411.72;;;5.75;100.00
55916;BME280;41826;53.246;-6.670;2022-10-16T04:04:25;99419.69;;;5.63;100.00
55916;BME280;41826;53.246;-6.670;2022-10-16T04:06:51;99414.66;;;5.52;100.00
55916;BME280;41826;53.246;-6.670;2022-10-16T04:09:16;99426.69;;;5.63;100.00
55916;BME280;41826;53.246;-6.670;2022-10-16T04:11:42;99426.25;;;5.68;100.00
55916;BME280;41826;53.246;-6.670;2022-10-16T04:14:07;99427.53;;;5.54;100.00
55916;BME280;41826;53.246;-6.670;2022-10-16T04:16:33;99443.41;;;5.60;100.00
55916;BME280;41826;53.246;-6.670;2022-10-16T04:18:59;99441.47;;;5.72;100.00
55916;BME280;41826;53.246;-6.670;2022-10-16T04:21:25;99457.16;;;5.43;100.00
55916;BME280;41826;53.246;-6.670;2022-10-16T04:23:50;99458.22;;;5.60;100.00
55916;BME280;41826;53.246;-6.670;2022-10-16T04:26:15;99462.66;;;5.40;100.00
55916;BME280;41826;53.246;-6.670;2022-10-16T04:28:41;99456.47;;;5.41;100.00
55916;BME280;41826;53.246;-6.670;2022-10-16T04:31:06;99463.19;;;5.43;100.00
55916;BME280;41826;53.246;-6.670;2022-10-16T04:33:33;99474.16;;;5.47;100.00
55916;BME280;41826;53.246;-6.670;2022-10-16T04:36:00;99479.75;;;5.42;100.00
55916;BME280;41826;53.246;-6.670;2022-10-16T04:38:25;99477.47;;;5.20;100.00
55916;BME280;41826;53.246;-6.670;2022-10-16T04:40:51;99492.66;;;5.34;100.00
55916;BME280;41826;53.246;-6.670;2022-10-16T04:43:16;99493.47;;;5.35;100.00
55916;BME280;41826;53.246;-6.670;2022-10-16T04:45:42;99484.16;;;5.42;100.00
55916;BME280;41826;53.246;-6.670;2022-10-16T04:48:07;99495.41;;;5.33;100.00
55916;BME280;41826;53.246;-6.670;2022-10-16T04:50:33;99504.69;;;5.35;100.00
55916;BME280;41826;53.246;-6.670;2022-10-16T04:52:58;99507.19;;;5.37;100.00
55916;BME280;41826;53.246;-6.670;2022-10-16T04:55:24;99503.31;;;5.31;100.00
55916;BME280;41826;53.246;-6.670;2022-10-16T04:57:49;99503.59;;;5.28;100.00
55916;BME280;41826;53.246;-6.670;2022-10-16T05:00:15;99510.44;;;5.39;100.00
55916;BME280;41826;53.246;-6.670;2022-10-16T05:02:40;99515.63;;;5.39;100.00
55916;BME280;41826;53.246;-6.670;2022-10-16T05:05:06;99507.19;;;5.37;100.00
55916;BME280;41826;53.246;-6.670;2022-10-16T05:07:32;99507.19;;;5.37;100.00
55916;BME280;41826;53.246;-6.670;2022-10-16T05:09:57;99502.38;;;5.32;100.00
55916;BME280;41826;53.246;-6.670;2022-10-16T05:12:23;99520.19;;;5.37;100.00
55916;BME280;41826;53.246;-6.670;2022-10-16T05:14:48;99520.03;;;5.29;100.00
55916;BME280;41826;53.246;-6.670;2022-10-16T05:17:13;99524.69;;;5.35;100.00
55916;BME280;41826;53.246;-6.670;2022-10-16T05:19:39;99522.91;;;5.26;100.00
55916;BME280;41826;53.246;-6.670;2022-10-16T05:22:04;99532.91;;;5.30;100.00
55916;BME280;41826;53.246;-6.670;2022-10-16T05:24:30;99538.94;;;5.31;100.00
55916;BME280;41826;53.246;-6.670;2022-10-16T05:26:56;99542.50;;;5.30;100.00
55916;BME280;41826;53.246;-6.670;2022-10-16T05:29:21;99535.25;;;5.33;100.00
55916;BME280;41826;53.246;-6.670;2022-10-16T05:31:50;99532.38;;;5.27;100.00
55916;BME280;41826;53.246;-6.670;2022-10-16T05:34:15;99538.94;;;5.21;100.00
55916;BME280;41826;53.246;-6.670;2022-10-16T05:36:41;99551.69;;;5.14;100.00
55916;BME280;41826;53.246;-6.670;2022-10-16T05:39:06;99545.53;;;5.25;100.00
55916;BME280;41826;53.246;-6.670;2022-10-16T05:41:32;99549.34;;;5.11;100.00
55916;BME280;41826;53.246;-6.670;2022-10-16T05:43:57;99557.03;;;5.22;100.00
55916;BME280;41826;53.246;-6.670;2022-10-16T05:46:22;99571.00;;;5.12;100.00
55916;BME280;41826;53.246;-6.670;2022-10-16T05:48:48;99581.94;;;5.15;100.00
55916;BME280;41826;53.246;-6.670;2022-10-16T05:51:14;99576.03;;;5.13;100.00
55916;BME280;41826;53.246;-6.670;2022-10-16T05:53:40;99591.53;;;5.15;100.00
55916;BME280;41826;53.246;-6.670;2022-10-16T05:56:07;99590.56;;;5.16;100.00
55916;BME280;41826;53.246;-6.670;2022-10-16T05:58:36;99593.16;;;5.06;100.00
55916;BME280;41826;53.246;-6.670;2022-10-16T06:01:10;99593.44;;;5.03;100.00
55916;BME280;41826;53.246;-6.670;2022-10-16T06:03:36;99597.94;;;5.01;100.00
55916;BME280;41826;53.246;-6.670;2022-10-16T06:06:10;99597.50;;;4.96;100.00
55916;BME280;41826;53.246;-6.670;2022-10-16T06:08:35;99605.63;;;5.03;100.00
55916;BME280;41826;53.246;-6.670;2022-10-16T06:11:05;99609.84;;;5.04;100.00
55916;BME280;41826;53.246;-6.670;2022-10-16T06:13:31;99606.16;;;4.96;100.00
55916;BME280;41826;53.246;-6.670;2022-10-16T06:15:58;99612.88;;;4.99;100.00
55916;BME280;41826;53.246;-6.670;2022-10-16T06:18:25;99599.44;;;4.94;100.00
55916;BME280;41826;53.246;-6.670;2022-10-16T06:20:51;99606.00;;;4.98;100.00
55916;BME280;41826;53.246;-6.670;2022-10-16T06:23:16;99606.28;;;4.95;100.00
55916;BME280;41826;53.246;-6.670;2022-10-16T06:25:41;99607.22;;;4.84;100.00
55916;BME280;41826;53.246;-6.670;2022-10-16T06:28:07;99606.81;;;4.79;100.00
55916;BME280;41826;53.246;-6.670;2022-10-16T06:30:32;99603.38;;;4.78;100.00
55916;BME280;41826;53.246;-6.670;2022-10-16T06:32:57;99611.19;;;4.78;100.00
55916;BME280;41826;53.246;-6.670;2022-10-16T06:35:23;99619.94;;;4.77;100.00
55916;BME280;41826;53.246;-6.670;2022-10-16T06:37:49;99623.22;;;4.80;100.00
55916;BME280;41826;53.246;-6.670;2022-10-16T06:40:14;99619.13;;;4.77;100.00
55916;BME280;41826;53.246;-6.670;2022-10-16T06:42:40;99617.31;;;4.77;100.00
55916;BME280;41826;53.246;-6.670;2022-10-16T06:45:06;99620.78;;;4.88;100.00
55916;BME280;41826;53.246;-6.670;2022-10-16T06:47:32;99613.66;;;4.90;100.00
55916;BME280;41826;53.246;-6.670;2022-10-16T06:49:57;99625.72;;;4.81;100.00
55916;BME280;41826;53.246;-6.670;2022-10-16T06:52:23;99623.88;;;4.72;100.00
55916;BME280;41826;53.246;-6.670;2022-10-16T06:54:49;99621.59;;;4.78;100.00
55916;BME280;41826;53.246;-6.670;2022-10-16T06:57:15;99609.25;;;4.81;100.00
55916;BME280;41826;53.246;-6.670;2022-10-16T06:59:40;99612.00;;;4.79;100.00
55916;BME280;41826;53.246;-6.670;2022-10-16T07:02:05;99611.97;;;4.69;100.00
55916;BME280;41826;53.246;-6.670;2022-10-16T07:04:32;99610.19;;;4.70;100.00
55916;BME280;41826;53.246;-6.670;2022-10-16T07:07:00;99615.00;;;4.74;100.00
55916;BME280;41826;53.246;-6.670;2022-10-16T07:09:25;99617.22;;;4.79;100.00
55916;BME280;41826;53.246;-6.670;2022-10-16T07:11:51;99611.63;;;4.84;100.00
55916;BME280;41826;53.246;-6.670;2022-10-16T07:14:18;99619.97;;;4.97;100.00
55916;BME280;41826;53.246;-6.670;2022-10-16T07:16:44;99619.97;;;4.97;100.00
55916;BME280;41826;53.246;-6.670;2022-10-16T07:19:10;99624.63;;;4.93;100.00
55916;BME280;41826;53.246;-6.670;2022-10-16T07:21:37;99628.47;;;5.09;100.00
55916;BME280;41826;53.246;-6.670;2022-10-16T07:24:05;99633.69;;;5.18;100.00
55916;BME280;41826;53.246;-6.670;2022-10-16T07:26:33;99645.88;;;5.18;100.00
55916;BME280;41826;53.246;-6.670;2022-10-16T07:29:00;99649.59;;;5.15;100.00
55916;BME280;41826;53.246;-6.670;2022-10-16T07:31:26;99657.25;;;5.07;100.00
55916;BME280;41826;53.246;-6.670;2022-10-16T07:33:52;99657.94;;;5.09;100.00
55916;BME280;41826;53.246;-6.670;2022-10-16T07:36:19;99663.00;;;5.20;100.00
55916;BME280;41826;53.246;-6.670;2022-10-16T07:38:45;99668.22;;;5.20;100.00
55916;BME280;41826;53.246;-6.670;2022-10-16T07:41:14;99678.09;;;5.27;100.00
55916;BME280;41826;53.246;-6.670;2022-10-16T07:43:44;99673.44;;;5.30;100.00
55916;BME280;41826;53.246;-6.670;2022-10-16T07:46:10;99686.56;;;5.29;100.00
55916;BME280;41826;53.246;-6.670;2022-10-16T07:48:36;99686.56;;;5.29;100.00
55916;BME280;41826;53.246;-6.670;2022-10-16T07:51:03;99701.63;;;5.25;100.00
55916;BME280;41826;53.246;-6.670;2022-10-16T07:53:29;99709.97;;;5.29;100.00
55916;BME280;41826;53.246;-6.670;2022-10-16T07:56:01;99715.63;;;5.34;100.00
55916;BME280;41826;53.246;-6.670;2022-10-16T07:58:28;99718.13;;;5.45;100.00
55916;BME280;41826;53.246;-6.670;2022-10-16T08:00:54;99718.94;;;5.46;100.00
55916;BME280;41826;53.246;-6.670;2022-10-16T08:03:20;99712.34;;;5.51;100.00
55916;BME280;41826;53.246;-6.670;2022-10-16T08:05:45;99717.69;;;5.59;100.00
55916;BME280;41826;53.246;-6.670;2022-10-16T08:08:15;99725.00;;;5.65;100.00
55916;BME280;41826;53.246;-6.670;2022-10-16T08:10:41;99714.56;;;5.65;100.00
55916;BME280;41826;53.246;-6.670;2022-10-16T08:13:06;99726.63;;;5.67;100.00
55916;BME280;41826;53.246;-6.670;2022-10-16T08:15:32;99722.78;;;5.71;100.00
55916;BME280;41826;53.246;-6.670;2022-10-16T08:18:03;99717.88;;;5.77;100.00
55916;BME280;41826;53.246;-6.670;2022-10-16T08:20:31;99718.53;;;5.79;100.00
55916;BME280;41826;53.246;-6.670;2022-10-16T08:22:56;99730.75;;;5.79;100.00
55916;BME280;41826;53.246;-6.670;2022-10-16T08:25:22;99725.53;;;5.79;100.00
55916;BME280;41826;53.246;-6.670;2022-10-16T08:27:48;99725.13;;;5.83;100.00
55916;BME280;41826;53.246;-6.670;2022-10-16T08:30:15;99734.19;;;5.89;100.00
55916;BME280;41826;53.246;-6.670;2022-10-16T08:32:41;99720.66;;;5.95;100.00
55916;BME280;41826;53.246;-6.670;2022-10-16T08:35:08;99728.03;;;6.00;100.00
55916;BME280;41826;53.246;-6.670;2022-10-16T08:37:46;99737.75;;;6.07;100.00
55916;BME280;41826;53.246;-6.670;2022-10-16T08:40:42;99734.06;;;6.20;100.00
55916;BME280;41826;53.246;-6.670;2022-10-16T08:50:27;99749.09;;;6.45;100.00
55916;BME280;41826;53.246;-6.670;2022-10-16T08:53:38;99755.81;;;6.58;100.00
55916;BME280;41826;53.246;-6.670;2022-10-16T08:56:37;99752.91;;;6.61;100.00
55916;BME280;41826;53.246;-6.670;2022-10-16T08:59:26;99747.97;;;6.67;100.00
55916;BME280;41826;53.246;-6.670;2022-10-16T09:18:12;99791.66;;;7.03;100.00
55916;BME280;41826;53.246;-6.670;2022-10-16T09:24:11;99789.81;;;7.13;100.00
55916;BME280;41826;53.246;-6.670;2022-10-16T09:26:57;99790.59;;;7.23;100.00
55916;BME280;41826;53.246;-6.670;2022-10-16T09:29:39;99798.31;;;7.25;100.00
55916;BME280;41826;53.246;-6.670;2022-10-16T09:32:15;99795.91;;;7.31;100.00
55916;BME280;41826;53.246;-6.670;2022-10-16T09:34:53;99789.75;;;7.32;100.00
55916;BME280;41826;53.246;-6.670;2022-10-16T09:37:22;99791.75;;;7.38;100.00
55916;BME280;41826;53.246;-6.670;2022-10-16T09:39:51;99783.06;;;7.48;100.00
55916;BME280;41826;53.246;-6.670;2022-10-16T09:42:19;99791.28;;;7.53;100.00
55916;BME280;41826;53.246;-6.670;2022-10-16T09:44:50;99785.75;;;7.56;100.00
55916;BME280;41826;53.246;-6.670;2022-10-16T09:47:21;99797.66;;;7.68;100.00
55916;BME280;41826;53.246;-6.670;2022-10-16T09:49:59;99790.34;;;7.72;100.00
55916;BME280;41826;53.246;-6.670;2022-10-16T09:52:28;99782.66;;;7.70;100.00
55916;BME280;41826;53.246;-6.670;2022-10-16T09:54:58;99796.19;;;7.84;100.00
55916;BME280;41826;53.246;-6.670;2022-10-16T09:57:24;99782.81;;;7.87;100.00
55916;BME280;41826;53.246;-6.670;2022-10-16T09:59:57;99788.66;;;7.98;100.00
55916;BME280;41826;53.246;-6.670;2022-10-16T10:02:30;99791.25;;;7.98;100.00
55916;BME280;41826;53.246;-6.670;2022-10-16T10:04:56;99787.38;;;8.02;100.00
55916;BME280;41826;53.246;-6.670;2022-10-16T10:07:33;99789.91;;;8.12;100.00
55916;BME280;41826;53.246;-6.670;2022-10-16T10:10:04;99792.91;;;8.17;100.00
55916;BME280;41826;53.246;-6.670;2022-10-16T10:12:31;99780.94;;;8.15;100.00
55916;BME280;41826;53.246;-6.670;2022-10-16T10:15:12;99782.22;;;8.29;100.00
55916;BME280;41826;53.246;-6.670;2022-10-16T10:17:50;99776.00;;;8.30;100.00
55916;BME280;41826;53.246;-6.670;2022-10-16T10:20:33;99774.28;;;8.38;100.00
55916;BME280;41826;53.246;-6.670;2022-10-16T10:22:59;99761.34;;;8.37;100.00
55916;BME280;41826;53.246;-6.670;2022-10-16T10:25:54;99761.00;;;8.32;100.00
55916;BME280;41826;53.246;-6.670;2022-10-16T10:34:00;99766.97;;;8.42;100.00
55916;BME280;41826;53.246;-6.670;2022-10-16T10:36:34;99768.16;;;8.48;100.00
55916;BME280;41826;53.246;-6.670;2022-10-16T10:49:57;99780.25;;;8.66;100.00
55916;BME280;41826;53.246;-6.670;2022-10-16T10:52:34;99789.25;;;8.72;100.00
55916;BME280;41826;53.246;-6.670;2022-10-16T10:55:37;99800.91;;;8.78;100.00
55916;BME280;41826;53.246;-6.670;2022-10-16T11:03:35;99800.66;;;8.89;100.00
55916;BME280;41826;53.246;-6.670;2022-10-16T11:06:17;99806.84;;;8.88;100.00
55916;BME280;41826;53.246;-6.670;2022-10-16T11:08:48;99810.50;;;8.95;100.00
55916;BME280;41826;53.246;-6.670;2022-10-16T11:11:43;99812.31;;;8.95;100.00
55916;BME280;41826;53.246;-6.670;2022-10-16T11:14:23;99812.66;;;9.00;100.00
55916;BME280;41826;53.246;-6.670;2022-10-16T11:16:56;99818.72;;;9.00;100.00
55916;BME280;41826;53.246;-6.670;2022-10-16T11:19:46;99807.78;;;9.05;100.00
55916;BME280;41826;53.246;-6.670;2022-10-16T11:22:30;99812.56;;;9.09;100.00
55916;BME280;41826;53.246;-6.670;2022-10-16T11:25:11;99801.28;;;9.09;100.00
55916;BME280;41826;53.246;-6.670;2022-10-16T11:27:43;99800.13;;;9.11;100.00
55916;BME280;41826;53.246;-6.670;2022-10-16T11:30:26;99791.97;;;9.15;100.00
55916;BME280;41826;53.246;-6.670;2022-10-16T11:41:42;99797.94;;;9.33;100.00
55916;BME280;41826;53.246;-6.670;2022-10-16T11:50:12;99783.59;;;9.53;100.00
55916;BME280;41826;53.246;-6.670;2022-10-16T11:52:53;99780.63;;;9.57;100.00
55916;BME280;41826;53.246;-6.670;2022-10-16T11:55:23;99768.88;;;9.61;100.00
55916;BME280;41826;53.246;-6.670;2022-10-16T11:58:02;99759.72;;;9.65;100.00
55916;BME280;41826;53.246;-6.670;2022-10-16T12:08:33;99759.41;;;9.76;100.00
55916;BME280;41826;53.246;-6.670;2022-10-16T12:16:55;99749.91;;;9.75;100.00
55916;BME280;41826;53.246;-6.670;2022-10-16T12:19:22;99749.91;;;9.75;100.00
55916;BME280;41826;53.246;-6.670;2022-10-16T12:21:50;99753.16;;;9.77;100.00
55916;BME280;41826;53.246;-6.670;2022-10-16T12:27:00;99736.00;;;9.83;100.00
55916;BME280;41826;53.246;-6.670;2022-10-16T12:29:38;99733.88;;;9.86;100.00
55916;BME280;41826;53.246;-6.670;2022-10-16T12:32:23;99740.59;;;9.89;100.00
55916;BME280;41826;53.246;-6.670;2022-10-16T12:34:50;99744.00;;;9.89;100.00
55916;BME280;41826;53.246;-6.670;2022-10-16T12:37:25;99745.16;;;9.95;100.00
55916;BME280;41826;53.246;-6.670;2022-10-16T12:39:53;99736.66;;;9.93;100.00
55916;BME280;41826;53.246;-6.670;2022-10-16T12:44:51;99741.06;;;9.92;100.00
55916;BME280;41826;53.246;-6.670;2022-10-16T12:49:58;99714.38;;;9.89;100.00
55916;BME280;41826;53.246;-6.670;2022-10-16T12:52:28;99716.84;;;9.98;100.00
55916;BME280;41826;53.246;-6.670;2022-10-16T12:54:56;99708.31;;;9.88;100.00
55916;BME280;41826;53.246;-6.670;2022-10-16T13:06:46;99685.19;;;9.84;100.00
55916;BME280;41826;53.246;-6.670;2022-10-16T13:09:31;99672.41;;;9.89;100.00
55916;BME280;41826;53.246;-6.670;2022-10-16T13:23:19;99645.06;;;9.83;100.00
55916;BME280;41826;53.246;-6.670;2022-10-16T13:28:31;99627.88;;;9.81;100.00
55916;BME280;41826;53.246;-6.670;2022-10-16T13:30:59;99625.72;;;9.84;100.00
55916;BME280;41826;53.246;-6.670;2022-10-16T13:33:37;99631.97;;;9.83;100.00
55916;BME280;41826;53.246;-6.670;2022-10-16T13:36:04;99613.78;;;9.82;100.00
55916;BME280;41826;53.246;-6.670;2022-10-16T13:38:34;99578.91;;;9.73;100.00
55916;BME280;41826;53.246;-6.670;2022-10-16T13:41:15;99561.53;;;9.80;100.00
55916;BME280;41826;53.246;-6.670;2022-10-16T13:43:43;99560.53;;;9.81;100.00
55916;BME280;41826;53.246;-6.670;2022-10-16T13:46:18;99565.44;;;9.84;100.00
55916;BME280;41826;53.246;-6.670;2022-10-16T13:48:55;99580.19;;;9.77;100.00
55916;BME280;41826;53.246;-6.670;2022-10-16T13:51:21;99561.38;;;9.73;100.00
55916;BME280;41826;53.246;-6.670;2022-10-16T13:53:47;99568.06;;;9.84;100.00
55916;BME280;41826;53.246;-6.670;2022-10-16T13:56:16;99563.78;;;9.99;100.00
55916;BME280;41826;53.246;-6.670;2022-10-16T13:58:43;99559.69;;;9.97;100.00
55916;BME280;41826;53.246;-6.670;2022-10-16T14:01:49;99553.31;;;9.91;100.00
55916;BME280;41826;53.246;-6.670;2022-10-16T14:04:14;99551.16;;;9.95;100.00
55916;BME280;41826;53.246;-6.670;2022-10-16T14:06:43;99551.00;;;9.96;100.00
55916;BME280;41826;53.246;-6.670;2022-10-16T14:11:48;99560.69;;;9.88;100.00
55916;BME280;41826;53.246;-6.670;2022-10-16T14:14:15;99553.81;;;9.87;100.00
55916;BME280;41826;53.246;-6.670;2022-10-16T14:16:42;99554.63;;;9.87;100.00
55916;BME280;41826;53.246;-6.670;2022-10-16T14:19:20;99551.19;;;9.87;100.00
55916;BME280;41826;53.246;-6.670;2022-10-16T14:21:48;99537.59;;;9.83;100.00
55916;BME280;41826;53.246;-6.670;2022-10-16T14:26:56;99536.94;;;9.81;100.00
55916;BME280;41826;53.246;-6.670;2022-10-16T14:29:24;99540.56;;;9.80;100.00
55916;BME280;41826;53.246;-6.670;2022-10-16T14:32:00;99543.16;;;9.88;100.00
55916;BME280;41826;53.246;-6.670;2022-10-16T14:34:37;99537.13;;;9.88;100.00
55916;BME280;41826;53.246;-6.670;2022-10-16T14:37:26;99539.72;;;9.88;100.00
55916;BME280;41826;53.246;-6.670;2022-10-16T14:39:53;99530.06;;;9.88;100.00
55916;BME280;41826;53.246;-6.670;2022-10-16T14:42:21;99510.91;;;9.88;100.00
55916;BME280;41826;53.246;-6.670;2022-10-16T14:44:50;99511.53;;;9.90;100.00
55916;BME280;41826;53.246;-6.670;2022-10-16T14:47:21;99505.13;;;9.92;100.00
55916;BME280;41826;53.246;-6.670;2022-10-16T14:49:50;99501.88;;;9.90;100.00
55916;BME280;41826;53.246;-6.670;2022-10-16T14:52:15;99491.06;;;9.93;100.00
55916;BME280;41826;53.246;-6.670;2022-10-16T14:54:41;99483.69;;;9.89;100.00
55916;BME280;41826;53.246;-6.670;2022-10-16T14:57:17;99484.16;;;9.92;100.00
55916;BME280;41826;53.246;-6.670;2022-10-16T14:59:43;99479.25;;;9.89;100.00
55916;BME280;41826;53.246;-6.670;2022-10-16T15:02:28;99473.00;;;9.98;100.00
55916;BME280;41826;53.246;-6.670;2022-10-16T15:04:55;99466.75;;;9.99;100.00
55916;BME280;41826;53.246;-6.670;2022-10-16T15:07:20;99470.03;;;10.02;100.00
55916;BME280;41826;53.246;-6.670;2022-10-16T15:09:46;99453.84;;;9.98;100.00
55916;BME280;41826;53.246;-6.670;2022-10-16T15:12:12;99455.31;;;10.01;100.00